sensor_id;sensor_type;location;lat;lon;timestamp;P1;durP1;ratioP1;P2;durP2;ratioP2
58842;SDS011;44614;54.356;10.100;2024-02-15T00:00:15;12.13;;;4.30;;
58842;SDS011;44614;54.356;10.100;2024-02-15T00:02:42;13.10;;;5.03;;
58842;SDS011;44614;54.356;10.100;2024-02-15T00:05:10;16.52;;;5.35;;
58842;SDS011;44614;54.356;10.100;2024-02-15T00:07:41;13.00;;;4.13;;
58842;SDS011;44614;54.356;10.100;2024-02-15T00:10:07;12.20;;;4.00;;
58842;SDS011;44614;54.356;10.100;2024-02-15T00:12:34;15.00;;;6.38;;
58842;SDS011;44614;54.356;10.100;2024-02-15T00:14:59;13.67;;;3.40;;
58842;SDS011;44614;54.356;10.100;2024-02-15T00:17:26;10.80;;;4.15;;
58842;SDS011;44614;54.356;10.100;2024-02-15T00:19:52;15.75;;;5.32;;
58842;SDS011;44614;54.356;10.100;2024-02-15T00:22:17;16.00;;;5.10;;
58842;SDS011;44614;54.356;10.100;2024-02-15T00:24:44;13.20;;;4.50;;
58842;SDS011;44614;54.356;10.100;2024-02-15T00:27:10;11.18;;;3.60;;
58842;SDS011;44614;54.356;10.100;2024-02-15T00:29:36;13.90;;;4.43;;
58842;SDS011;44614;54.356;10.100;2024-02-15T00:32:01;12.23;;;4.90;;
58842;SDS011;44614;54.356;10.100;2024-02-15T00:34:28;14.60;;;4.47;;
58842;SDS011;44614;54.356;10.100;2024-02-15T00:36:54;14.63;;;4.77;;
58842;SDS011;44614;54.356;10.100;2024-02-15T00:39:19;11.82;;;5.43;;
58842;SDS011;44614;54.356;10.100;2024-02-15T00:41:45;16.00;;;5.33;;
58842;SDS011;44614;54.356;10.100;2024-02-15T00:44:11;9.85;;;3.92;;
58842;SDS011;44614;54.356;10.100;2024-02-15T00:46:36;9.52;;;3.92;;
58842;SDS011;44614;54.356;10.100;2024-02-15T00:49:06;11.65;;;4.35;;
58842;SDS011;44614;54.356;10.100;2024-02-15T00:51:35;14.30;;;4.50;;
58842;SDS011;44614;54.356;10.100;2024-02-15T00:54:01;11.15;;;4.82;;
58842;SDS011;44614;54.356;10.100;2024-02-15T00:56:28;10.63;;;3.72;;
58842;SDS011;44614;54.356;10.100;2024-02-15T00:58:55;10.43;;;3.17;;
58842;SDS011;44614;54.356;10.100;2024-02-15T01:01:21;6.83;;;3.03;;
58842;SDS011;44614;54.356;10.100;2024-02-15T01:03:47;14.13;;;4.45;;
58842;SDS011;44614;54.356;10.100;2024-02-15T01:06:12;9.83;;;3.53;;
58842;SDS011;44614;54.356;10.100;2024-02-15T01:08:38;14.10;;;3.63;;
58842;SDS011;44614;54.356;10.100;2024-02-15T01:11:04;12.68;;;3.83;;
58842;SDS011;44614;54.356;10.100;2024-02-15T01:13:29;12.27;;;3.80;;
58842;SDS011;44614;54.356;10.100;2024-02-15T01:15:55;15.87;;;5.17;;
58842;SDS011;44614;54.356;10.100;2024-02-15T01:18:20;14.23;;;4.67;;
58842;SDS011;44614;54.356;10.100;2024-02-15T01:20:46;14.30;;;4.00;;
58842;SDS011;44614;54.356;10.100;2024-02-15T01:23:12;14.80;;;4.83;;
58842;SDS011;44614;54.356;10.100;2024-02-15T01:25:37;12.40;;;4.53;;
58842;SDS011;44614;54.356;10.100;2024-02-15T01:28:05;10.93;;;4.43;;
58842;SDS011;44614;54.356;10.100;2024-02-15T01:30:30;17.93;;;5.77;;
58842;SDS011;44614;54.356;10.100;2024-02-15T01:32:57;15.10;;;4.85;;
58842;SDS011;44614;54.356;10.100;2024-02-15T01:35:22;13.30;;;4.20;;
58842;SDS011;44614;54.356;10.100;2024-02-15T01:37:48;17.17;;;4.67;;
58842;SDS011;44614;54.356;10.100;2024-02-15T01:40:13;11.43;;;3.83;;
58842;SDS011;44614;54.356;10.100;2024-02-15T01:42:39;11.73;;;5.67;;
58842;SDS011;44614;54.356;10.100;2024-02-15T01:45:05;10.38;;;3.63;;
58842;SDS011;44614;54.356;10.100;2024-02-15T01:47:31;11.93;;;4.47;;
58842;SDS011;44614;54.356;10.100;2024-02-15T01:49:56;13.53;;;4.97;;
58842;SDS011;44614;54.356;10.100;2024-02-15T01:52:22;13.18;;;4.07;;
58842;SDS011;44614;54.356;10.100;2024-02-15T01:54:49;8.20;;;3.23;;
58842;SDS011;44614;54.356;10.100;2024-02-15T01:57:18;7.63;;;2.45;;
58842;SDS011;44614;54.356;10.100;2024-02-15T01:59:46;10.25;;;4.10;;
58842;SDS011;44614;54.356;10.100;2024-02-15T02:02:14;9.18;;;3.55;;
58842;SDS011;44614;54.356;10.100;2024-02-15T02:07:07;8.68;;;3.58;;
58842;SDS011;44614;54.356;10.100;2024-02-15T02:09:32;11.43;;;2.63;;
58842;SDS011;44614;54.356;10.100;2024-02-15T02:11:58;10.00;;;3.07;;
58842;SDS011;44614;54.356;10.100;2024-02-15T02:14:24;11.10;;;3.63;;
58842;SDS011;44614;54.356;10.100;2024-02-15T02:16:50;12.90;;;2.75;;
58842;SDS011;44614;54.356;10.100;2024-02-15T02:19:16;10.73;;;2.67;;
58842;SDS011;44614;54.356;10.100;2024-02-15T02:21:42;8.83;;;3.37;;
58842;SDS011;44614;54.356;10.100;2024-02-15T02:26:38;9.23;;;3.08;;
58842;SDS011;44614;54.356;10.100;2024-02-15T02:29:04;9.83;;;3.27;;
58842;SDS011;44614;54.356;10.100;2024-02-15T02:31:35;11.57;;;4.28;;
58842;SDS011;44614;54.356;10.100;2024-02-15T02:34:00;8.57;;;3.50;;
58842;SDS011;44614;54.356;10.100;2024-02-15T02:36:26;10.07;;;3.13;;
58842;SDS011;44614;54.356;10.100;2024-02-15T02:38:52;7.82;;;2.83;;
58842;SDS011;44614;54.356;10.100;2024-02-15T02:41:18;7.88;;;3.30;;
58842;SDS011;44614;54.356;10.100;2024-02-15T02:43:48;10.48;;;3.75;;
58842;SDS011;44614;54.356;10.100;2024-02-15T02:46:13;8.00;;;3.33;;
58842;SDS011;44614;54.356;10.100;2024-02-15T02:48:39;7.07;;;2.53;;
58842;SDS011;44614;54.356;10.100;2024-02-15T02:51:06;7.07;;;2.73;;
58842;SDS011;44614;54.356;10.100;2024-02-15T02:53:31;8.63;;;3.50;;
58842;SDS011;44614;54.356;10.100;2024-02-15T02:55:57;9.97;;;3.70;;
58842;SDS011;44614;54.356;10.100;2024-02-15T02:58:23;11.60;;;3.22;;
58842;SDS011;44614;54.356;10.100;2024-02-15T03:00:49;10.73;;;3.00;;
58842;SDS011;44614;54.356;10.100;2024-02-15T03:03:17;5.90;;;2.50;;
58842;SDS011;44614;54.356;10.100;2024-02-15T03:05:48;6.07;;;2.38;;
58842;SDS011;44614;54.356;10.100;2024-02-15T03:08:13;11.63;;;2.50;;
58842;SDS011;44614;54.356;10.100;2024-02-15T03:10:39;5.65;;;1.98;;
58842;SDS011;44614;54.356;10.100;2024-02-15T03:13:06;8.70;;;3.15;;
58842;SDS011;44614;54.356;10.100;2024-02-15T03:15:34;7.18;;;2.17;;
58842;SDS011;44614;54.356;10.100;2024-02-15T03:18:00;4.15;;;2.15;;
58842;SDS011;44614;54.356;10.100;2024-02-15T03:20:25;6.18;;;2.30;;
58842;SDS011;44614;54.356;10.100;2024-02-15T03:22:54;8.50;;;2.83;;
58842;SDS011;44614;54.356;10.100;2024-02-15T03:25:24;8.60;;;2.47;;
58842;SDS011;44614;54.356;10.100;2024-02-15T03:27:53;8.07;;;2.05;;
58842;SDS011;44614;54.356;10.100;2024-02-15T03:30:21;8.90;;;2.90;;
58842;SDS011;44614;54.356;10.100;2024-02-15T03:32:49;5.40;;;1.95;;
58842;SDS011;44614;54.356;10.100;2024-02-15T03:35:16;8.35;;;2.60;;
58842;SDS011;44614;54.356;10.100;2024-02-15T03:37:42;8.65;;;2.83;;
58842;SDS011;44614;54.356;10.100;2024-02-15T03:40:08;7.63;;;2.17;;
58842;SDS011;44614;54.356;10.100;2024-02-15T03:42:34;8.93;;;2.20;;
58842;SDS011;44614;54.356;10.100;2024-02-15T03:45:03;7.15;;;2.50;;
58842;SDS011;44614;54.356;10.100;2024-02-15T03:47:37;4.82;;;1.92;;
58842;SDS011;44614;54.356;10.100;2024-02-15T03:50:03;7.43;;;2.30;;
58842;SDS011;44614;54.356;10.100;2024-02-15T03:52:33;6.78;;;2.45;;
58842;SDS011;44614;54.356;10.100;2024-02-15T03:54:58;6.90;;;2.17;;
58842;SDS011;44614;54.356;10.100;2024-02-15T03:57:24;9.98;;;2.92;;
58842;SDS011;44614;54.356;10.100;2024-02-15T03:59:50;3.78;;;1.88;;
58842;SDS011;44614;54.356;10.100;2024-02-15T04:02:21;7.32;;;2.47;;
58842;SDS011;44614;54.356;10.100;2024-02-15T04:04:51;7.97;;;2.60;;
58842;SDS011;44614;54.356;10.100;2024-02-15T04:07:19;5.15;;;2.25;;
58842;SDS011;44614;54.356;10.100;2024-02-15T04:09:45;6.77;;;2.20;;
58842;SDS011;44614;54.356;10.100;2024-02-15T04:12:11;5.18;;;2.25;;
58842;SDS011;44614;54.356;10.100;2024-02-15T04:14:37;10.27;;;3.00;;
58842;SDS011;44614;54.356;10.100;2024-02-15T04:17:06;5.25;;;1.90;;
58842;SDS011;44614;54.356;10.100;2024-02-15T04:19:32;6.60;;;2.95;;
58842;SDS011;44614;54.356;10.100;2024-02-15T04:21:58;5.63;;;2.77;;
58842;SDS011;44614;54.356;10.100;2024-02-15T04:24:24;4.53;;;2.75;;
58842;SDS011;44614;54.356;10.100;2024-02-15T04:26:50;5.23;;;2.33;;
58842;SDS011;44614;54.356;10.100;2024-02-15T04:29:16;4.20;;;1.77;;
58842;SDS011;44614;54.356;10.100;2024-02-15T04:31:45;5.10;;;1.73;;
58842;SDS011;44614;54.356;10.100;2024-02-15T04:34:17;7.53;;;3.08;;
58842;SDS011;44614;54.356;10.100;2024-02-15T04:36:46;6.00;;;2.58;;
58842;SDS011;44614;54.356;10.100;2024-02-15T04:39:18;4.47;;;2.20;;
58842;SDS011;44614;54.356;10.100;2024-02-15T04:41:52;4.70;;;2.25;;
58842;SDS011;44614;54.356;10.100;2024-02-15T04:44:19;5.72;;;2.05;;
58842;SDS011;44614;54.356;10.100;2024-02-15T04:46:52;8.50;;;2.90;;
58842;SDS011;44614;54.356;10.100;2024-02-15T04:49:17;7.80;;;3.17;;
58842;SDS011;44614;54.356;10.100;2024-02-15T04:51:43;5.13;;;2.43;;
58842;SDS011;44614;54.356;10.100;2024-02-15T04:54:09;5.95;;;2.10;;
58842;SDS011;44614;54.356;10.100;2024-02-15T04:56:39;6.40;;;2.58;;
58842;SDS011;44614;54.356;10.100;2024-02-15T04:59:05;7.20;;;2.28;;
58842;SDS011;44614;54.356;10.100;2024-02-15T05:01:34;5.20;;;1.80;;
58842;SDS011;44614;54.356;10.100;2024-02-15T05:04:00;6.95;;;2.17;;
58842;SDS011;44614;54.356;10.100;2024-02-15T05:06:31;5.35;;;2.50;;
58842;SDS011;44614;54.356;10.100;2024-02-15T05:08:57;6.93;;;2.42;;
58842;SDS011;44614;54.356;10.100;2024-02-15T05:11:25;6.93;;;2.70;;
58842;SDS011;44614;54.356;10.100;2024-02-15T05:13:51;6.32;;;2.25;;
58842;SDS011;44614;54.356;10.100;2024-02-15T05:16:17;7.43;;;2.10;;
58842;SDS011;44614;54.356;10.100;2024-02-15T05:18:43;6.83;;;2.37;;
58842;SDS011;44614;54.356;10.100;2024-02-15T05:21:09;4.60;;;1.83;;
58842;SDS011;44614;54.356;10.100;2024-02-15T05:23:35;8.00;;;3.00;;
58842;SDS011;44614;54.356;10.100;2024-02-15T05:26:02;6.55;;;2.50;;
58842;SDS011;44614;54.356;10.100;2024-02-15T05:28:28;12.20;;;3.43;;
58842;SDS011;44614;54.356;10.100;2024-02-15T05:33:42;7.20;;;3.63;;
58842;SDS011;44614;54.356;10.100;2024-02-15T05:36:19;11.68;;;3.92;;
58842;SDS011;44614;54.356;10.100;2024-02-15T05:38:52;7.75;;;2.97;;
58842;SDS011;44614;54.356;10.100;2024-02-15T05:41:18;8.65;;;2.22;;
58842;SDS011;44614;54.356;10.100;2024-02-15T05:43:46;7.32;;;3.05;;
58842;SDS011;44614;54.356;10.100;2024-02-15T05:46:13;15.07;;;4.53;;
58842;SDS011;44614;54.356;10.100;2024-02-15T05:48:40;9.98;;;3.53;;
58842;SDS011;44614;54.356;10.100;2024-02-15T05:51:06;9.60;;;3.17;;
58842;SDS011;44614;54.356;10.100;2024-02-15T05:53:33;11.38;;;4.68;;
58842;SDS011;44614;54.356;10.100;2024-02-15T05:56:01;14.40;;;4.47;;
58842;SDS011;44614;54.356;10.100;2024-02-15T05:58:29;9.88;;;2.90;;
58842;SDS011;44614;54.356;10.100;2024-02-15T06:00:55;10.57;;;4.50;;
58842;SDS011;44614;54.356;10.100;2024-02-15T06:03:26;12.32;;;4.53;;
58842;SDS011;44614;54.356;10.100;2024-02-15T06:05:51;10.93;;;4.23;;
58842;SDS011;44614;54.356;10.100;2024-02-15T06:08:17;10.83;;;4.20;;
58842;SDS011;44614;54.356;10.100;2024-02-15T06:10:43;10.07;;;4.22;;
58842;SDS011;44614;54.356;10.100;2024-02-15T06:13:09;15.27;;;5.27;;
58842;SDS011;44614;54.356;10.100;2024-02-15T06:15:34;11.57;;;4.57;;
58842;SDS011;44614;54.356;10.100;2024-02-15T06:18:00;16.30;;;5.00;;
58842;SDS011;44614;54.356;10.100;2024-02-15T06:20:25;15.00;;;5.07;;
58842;SDS011;44614;54.356;10.100;2024-02-15T06:22:54;15.65;;;4.93;;
58842;SDS011;44614;54.356;10.100;2024-02-15T06:25:20;14.55;;;4.93;;
58842;SDS011;44614;54.356;10.100;2024-02-15T06:27:46;17.20;;;6.87;;
58842;SDS011;44614;54.356;10.100;2024-02-15T06:30:12;14.98;;;5.95;;
58842;SDS011;44614;54.356;10.100;2024-02-15T06:32:59;12.38;;;4.85;;
58842;SDS011;44614;54.356;10.100;2024-02-15T06:35:43;16.95;;;6.03;;
58842;SDS011;44614;54.356;10.100;2024-02-15T06:38:27;18.58;;;6.40;;
58842;SDS011;44614;54.356;10.100;2024-02-15T06:41:11;18.55;;;5.47;;
58842;SDS011;44614;54.356;10.100;2024-02-15T06:43:37;13.88;;;5.35;;
58842;SDS011;44614;54.356;10.100;2024-02-15T06:46:05;15.63;;;5.05;;
58842;SDS011;44614;54.356;10.100;2024-02-15T06:48:32;18.73;;;5.05;;
58842;SDS011;44614;54.356;10.100;2024-02-15T06:50:57;17.97;;;5.70;;
58842;SDS011;44614;54.356;10.100;2024-02-15T06:53:23;15.67;;;4.63;;
58842;SDS011;44614;54.356;10.100;2024-02-15T06:55:49;20.13;;;5.72;;
58842;SDS011;44614;54.356;10.100;2024-02-15T06:58:15;15.13;;;4.50;;
58842;SDS011;44614;54.356;10.100;2024-02-15T07:00:45;18.13;;;5.32;;
58842;SDS011;44614;54.356;10.100;2024-02-15T07:03:10;12.32;;;4.65;;
58842;SDS011;44614;54.356;10.100;2024-02-15T07:05:36;20.43;;;5.17;;
58842;SDS011;44614;54.356;10.100;2024-02-15T07:08:04;17.80;;;5.90;;
58842;SDS011;44614;54.356;10.100;2024-02-15T07:10:30;13.60;;;4.72;;
58842;SDS011;44614;54.356;10.100;2024-02-15T07:12:57;18.55;;;5.95;;
58842;SDS011;44614;54.356;10.100;2024-02-15T07:15:22;10.40;;;4.13;;
58842;SDS011;44614;54.356;10.100;2024-02-15T07:17:48;17.57;;;4.50;;
58842;SDS011;44614;54.356;10.100;2024-02-15T07:20:13;21.17;;;6.50;;
58842;SDS011;44614;54.356;10.100;2024-02-15T07:22:45;18.58;;;5.97;;
58842;SDS011;44614;54.356;10.100;2024-02-15T07:25:10;15.02;;;4.07;;
58842;SDS011;44614;54.356;10.100;2024-02-15T07:27:36;15.90;;;5.47;;
58842;SDS011;44614;54.356;10.100;2024-02-15T07:30:02;15.93;;;5.97;;
58842;SDS011;44614;54.356;10.100;2024-02-15T07:32:29;16.70;;;5.15;;
58842;SDS011;44614;54.356;10.100;2024-02-15T07:34:56;15.15;;;5.32;;
58842;SDS011;44614;54.356;10.100;2024-02-15T07:37:22;13.83;;;5.67;;
58842;SDS011;44614;54.356;10.100;2024-02-15T07:39:51;16.95;;;6.15;;
58842;SDS011;44614;54.356;10.100;2024-02-15T07:42:17;18.03;;;7.03;;
58842;SDS011;44614;54.356;10.100;2024-02-15T07:44:42;18.60;;;5.80;;
58842;SDS011;44614;54.356;10.100;2024-02-15T07:47:08;15.67;;;5.37;;
58842;SDS011;44614;54.356;10.100;2024-02-15T07:49:35;17.02;;;6.25;;
58842;SDS011;44614;54.356;10.100;2024-02-15T07:52:02;25.45;;;7.40;;
58842;SDS011;44614;54.356;10.100;2024-02-15T07:54:29;22.13;;;7.10;;
58842;SDS011;44614;54.356;10.100;2024-02-15T07:56:56;24.30;;;6.00;;
58842;SDS011;44614;54.356;10.100;2024-02-15T07:59:23;18.35;;;7.25;;
58842;SDS011;44614;54.356;10.100;2024-02-15T08:01:49;18.73;;;6.97;;
58842;SDS011;44614;54.356;10.100;2024-02-15T08:04:18;22.05;;;7.35;;
58842;SDS011;44614;54.356;10.100;2024-02-15T08:06:44;19.23;;;6.57;;
58842;SDS011;44614;54.356;10.100;2024-02-15T08:09:10;20.27;;;7.00;;
58842;SDS011;44614;54.356;10.100;2024-02-15T08:11:41;20.80;;;7.00;;
58842;SDS011;44614;54.356;10.100;2024-02-15T08:14:07;15.27;;;6.40;;
58842;SDS011;44614;54.356;10.100;2024-02-15T08:16:35;18.90;;;7.18;;
58842;SDS011;44614;54.356;10.100;2024-02-15T08:19:02;17.70;;;4.55;;
58842;SDS011;44614;54.356;10.100;2024-02-15T08:21:33;17.27;;;5.50;;
58842;SDS011;44614;54.356;10.100;2024-02-15T08:24:04;16.38;;;6.63;;
58842;SDS011;44614;54.356;10.100;2024-02-15T08:26:37;13.18;;;5.60;;
58842;SDS011;44614;54.356;10.100;2024-02-15T08:29:04;19.05;;;6.10;;
58842;SDS011;44614;54.356;10.100;2024-02-15T08:31:31;14.38;;;4.90;;
58842;SDS011;44614;54.356;10.100;2024-02-15T08:33:57;13.03;;;4.40;;
58842;SDS011;44614;54.356;10.100;2024-02-15T08:36:23;16.67;;;4.88;;
58842;SDS011;44614;54.356;10.100;2024-02-15T08:38:49;18.30;;;5.27;;
58842;SDS011;44614;54.356;10.100;2024-02-15T08:41:15;12.47;;;5.07;;
58842;SDS011;44614;54.356;10.100;2024-02-15T08:43:43;17.05;;;4.38;;
58842;SDS011;44614;54.356;10.100;2024-02-15T08:46:08;14.53;;;5.43;;
58842;SDS011;44614;54.356;10.100;2024-02-15T08:48:35;14.07;;;4.20;;
58842;SDS011;44614;54.356;10.100;2024-02-15T08:51:01;20.50;;;6.37;;
58842;SDS011;44614;54.356;10.100;2024-02-15T08:53:26;12.10;;;4.27;;
58842;SDS011;44614;54.356;10.100;2024-02-15T08:55:52;15.88;;;4.65;;
58842;SDS011;44614;54.356;10.100;2024-02-15T08:58:18;14.23;;;4.73;;
58842;SDS011;44614;54.356;10.100;2024-02-15T09:00:44;15.40;;;4.80;;
58842;SDS011;44614;54.356;10.100;2024-02-15T09:03:13;13.87;;;5.00;;
58842;SDS011;44614;54.356;10.100;2024-02-15T09:05:41;14.32;;;4.32;;
58842;SDS011;44614;54.356;10.100;2024-02-15T09:08:07;13.43;;;5.30;;
58842;SDS011;44614;54.356;10.100;2024-02-15T09:10:33;16.27;;;6.83;;
58842;SDS011;44614;54.356;10.100;2024-02-15T09:12:58;17.77;;;5.90;;
58842;SDS011;44614;54.356;10.100;2024-02-15T09:15:24;15.47;;;5.57;;
58842;SDS011;44614;54.356;10.100;2024-02-15T09:17:50;14.93;;;6.07;;
58842;SDS011;44614;54.356;10.100;2024-02-15T09:20:16;15.53;;;5.50;;
58842;SDS011;44614;54.356;10.100;2024-02-15T09:22:49;19.25;;;7.43;;
58842;SDS011;44614;54.356;10.100;2024-02-15T09:25:16;20.23;;;7.32;;
58842;SDS011;44614;54.356;10.100;2024-02-15T09:27:42;18.52;;;6.72;;
58842;SDS011;44614;54.356;10.100;2024-02-15T09:30:09;11.73;;;4.65;;
58842;SDS011;44614;54.356;10.100;2024-02-15T09:32:41;21.48;;;7.45;;
58842;SDS011;44614;54.356;10.100;2024-02-15T09:35:07;15.10;;;5.45;;
58842;SDS011;44614;54.356;10.100;2024-02-15T09:37:34;16.45;;;7.13;;
58842;SDS011;44614;54.356;10.100;2024-02-15T09:40:12;14.80;;;5.07;;
58842;SDS011;44614;54.356;10.100;2024-02-15T09:42:40;16.13;;;6.18;;
58842;SDS011;44614;54.356;10.100;2024-02-15T09:45:06;19.17;;;7.20;;
58842;SDS011;44614;54.356;10.100;2024-02-15T09:47:36;12.88;;;4.85;;
58842;SDS011;44614;54.356;10.100;2024-02-15T09:50:05;14.48;;;5.65;;
58842;SDS011;44614;54.356;10.100;2024-02-15T09:52:32;16.90;;;6.22;;
58842;SDS011;44614;54.356;10.100;2024-02-15T09:55:02;17.25;;;6.25;;
58842;SDS011;44614;54.356;10.100;2024-02-15T09:57:29;15.13;;;6.10;;
58842;SDS011;44614;54.356;10.100;2024-02-15T09:59:57;17.67;;;6.20;;
58842;SDS011;44614;54.356;10.100;2024-02-15T10:02:23;15.97;;;5.63;;
58842;SDS011;44614;54.356;10.100;2024-02-15T10:04:50;12.95;;;5.88;;
58842;SDS011;44614;54.356;10.100;2024-02-15T10:07:18;13.55;;;4.97;;
58842;SDS011;44614;54.356;10.100;2024-02-15T10:09:44;15.40;;;5.17;;
58842;SDS011;44614;54.356;10.100;2024-02-15T10:12:09;13.87;;;4.77;;
58842;SDS011;44614;54.356;10.100;2024-02-15T10:14:35;14.13;;;4.53;;
58842;SDS011;44614;54.356;10.100;2024-02-15T10:17:07;13.97;;;4.87;;
58842;SDS011;44614;54.356;10.100;2024-02-15T10:19:39;14.50;;;4.63;;
58842;SDS011;44614;54.356;10.100;2024-02-15T10:22:07;13.07;;;4.82;;
58842;SDS011;44614;54.356;10.100;2024-02-15T10:24:34;15.07;;;5.10;;
58842;SDS011;44614;54.356;10.100;2024-02-15T10:27:02;16.55;;;6.00;;
58842;SDS011;44614;54.356;10.100;2024-02-15T10:29:29;14.27;;;4.80;;
58842;SDS011;44614;54.356;10.100;2024-02-15T10:31:56;13.15;;;5.55;;
58842;SDS011;44614;54.356;10.100;2024-02-15T10:34:24;14.98;;;5.32;;
58842;SDS011;44614;54.356;10.100;2024-02-15T10:36:52;15.85;;;6.50;;
58842;SDS011;44614;54.356;10.100;2024-02-15T10:39:19;15.98;;;5.78;;
58842;SDS011;44614;54.356;10.100;2024-02-15T10:41:46;9.65;;;4.32;;
58842;SDS011;44614;54.356;10.100;2024-02-15T10:44:13;17.67;;;4.97;;
58842;SDS011;44614;54.356;10.100;2024-02-15T10:46:41;16.38;;;6.10;;
58842;SDS011;44614;54.356;10.100;2024-02-15T10:49:09;18.48;;;5.10;;
58842;SDS011;44614;54.356;10.100;2024-02-15T10:51:34;12.83;;;5.37;;
58842;SDS011;44614;54.356;10.100;2024-02-15T10:54:02;13.80;;;5.10;;
58842;SDS011;44614;54.356;10.100;2024-02-15T10:56:34;11.32;;;4.40;;
58842;SDS011;44614;54.356;10.100;2024-02-15T11:01:49;14.65;;;5.82;;
58842;SDS011;44614;54.356;10.100;2024-02-15T11:04:20;18.75;;;6.78;;
58842;SDS011;44614;54.356;10.100;2024-02-15T11:06:50;13.35;;;5.40;;
58842;SDS011;44614;54.356;10.100;2024-02-15T11:09:20;10.70;;;5.25;;
58842;SDS011;44614;54.356;10.100;2024-02-15T11:11:47;11.15;;;4.93;;
58842;SDS011;44614;54.356;10.100;2024-02-15T11:16:55;15.65;;;5.78;;
58842;SDS011;44614;54.356;10.100;2024-02-15T11:20:03;10.73;;;4.25;;
58842;SDS011;44614;54.356;10.100;2024-02-15T11:22:12;12.20;;;5.05;;
58842;SDS011;44614;54.356;10.100;2024-02-15T11:24:52;9.60;;;4.75;;
58842;SDS011;44614;54.356;10.100;2024-02-15T11:27:27;13.45;;;4.45;;
58842;SDS011;44614;54.356;10.100;2024-02-15T11:35:20;10.43;;;3.50;;
58842;SDS011;44614;54.356;10.100;2024-02-15T11:40:14;12.07;;;3.93;;
58842;SDS011;44614;54.356;10.100;2024-02-15T11:42:52;10.38;;;4.30;;
58842;SDS011;44614;54.356;10.100;2024-02-15T11:45:28;10.57;;;3.25;;
58842;SDS011;44614;54.356;10.100;2024-02-15T11:48:10;8.95;;;3.38;;
58842;SDS011;44614;54.356;10.100;2024-02-15T11:50:37;12.15;;;4.82;;
58842;SDS011;44614;54.356;10.100;2024-02-15T11:53:05;10.95;;;3.75;;
58842;SDS011;44614;54.356;10.100;2024-02-15T11:55:34;8.38;;;3.55;;
58842;SDS011;44614;54.356;10.100;2024-02-15T11:58:01;13.95;;;3.85;;
58842;SDS011;44614;54.356;10.100;2024-02-15T12:00:31;11.07;;;4.38;;
58842;SDS011;44614;54.356;10.100;2024-02-15T12:03:16;11.77;;;4.18;;
58842;SDS011;44614;54.356;10.100;2024-02-15T12:06:01;13.27;;;4.18;;
58842;SDS011;44614;54.356;10.100;2024-02-15T12:08:46;11.95;;;4.18;;
58842;SDS011;44614;54.356;10.100;2024-02-15T12:11:31;14.60;;;5.50;;
58842;SDS011;44614;54.356;10.100;2024-02-15T12:14:16;16.15;;;5.28;;
58842;SDS011;44614;54.356;10.100;2024-02-15T12:17:01;15.80;;;4.93;;
58842;SDS011;44614;54.356;10.100;2024-02-15T12:19:56;20.00;;;7.00;;
58842;SDS011;44614;54.356;10.100;2024-02-15T12:22:31;15.05;;;6.68;;
58842;SDS011;44614;54.356;10.100;2024-02-15T12:25:00;14.50;;;5.85;;
58842;SDS011;44614;54.356;10.100;2024-02-15T12:27:42;13.70;;;5.20;;
58842;SDS011;44614;54.356;10.100;2024-02-15T12:30:15;14.95;;;5.65;;
58842;SDS011;44614;54.356;10.100;2024-02-15T12:32:48;16.35;;;6.50;;
58842;SDS011;44614;54.356;10.100;2024-02-15T12:35:16;19.92;;;6.20;;
58842;SDS011;44614;54.356;10.100;2024-02-15T12:37:46;14.77;;;5.63;;
58842;SDS011;44614;54.356;10.100;2024-02-15T12:40:12;16.20;;;7.07;;
58842;SDS011;44614;54.356;10.100;2024-02-15T12:42:45;14.10;;;7.82;;
58842;SDS011;44614;54.356;10.100;2024-02-15T12:45:15;15.55;;;6.57;;
58842;SDS011;44614;54.356;10.100;2024-02-15T12:47:52;21.13;;;7.93;;
58842;SDS011;44614;54.356;10.100;2024-02-15T12:50:19;18.60;;;8.02;;
58842;SDS011;44614;54.356;10.100;2024-02-15T12:52:47;18.15;;;6.97;;
58842;SDS011;44614;54.356;10.100;2024-02-15T12:55:17;19.90;;;7.40;;
58842;SDS011;44614;54.356;10.100;2024-02-15T12:57:47;14.02;;;6.65;;
58842;SDS011;44614;54.356;10.100;2024-02-15T13:00:20;21.23;;;7.47;;
58842;SDS011;44614;54.356;10.100;2024-02-15T13:02:47;14.57;;;6.50;;
58842;SDS011;44614;54.356;10.100;2024-02-15T13:05:17;18.55;;;7.70;;
58842;SDS011;44614;54.356;10.100;2024-02-15T13:07:44;18.15;;;6.65;;
58842;SDS011;44614;54.356;10.100;2024-02-15T13:10:10;15.45;;;7.38;;
58842;SDS011;44614;54.356;10.100;2024-02-15T13:12:36;17.10;;;7.57;;
58842;SDS011;44614;54.356;10.100;2024-02-15T13:15:05;14.68;;;7.38;;
58842;SDS011;44614;54.356;10.100;2024-02-15T13:17:36;20.92;;;7.35;;
58842;SDS011;44614;54.356;10.100;2024-02-15T13:20:03;19.08;;;7.35;;
58842;SDS011;44614;54.356;10.100;2024-02-15T13:22:36;21.08;;;8.77;;
58842;SDS011;44614;54.356;10.100;2024-02-15T13:25:03;18.92;;;7.03;;
58842;SDS011;44614;54.356;10.100;2024-02-15T13:27:29;22.02;;;6.80;;
58842;SDS011;44614;54.356;10.100;2024-02-15T13:29:55;24.27;;;9.87;;
58842;SDS011;44614;54.356;10.100;2024-02-15T13:32:22;16.83;;;6.35;;
58842;SDS011;44614;54.356;10.100;2024-02-15T13:34:48;18.57;;;7.57;;
58842;SDS011;44614;54.356;10.100;2024-02-15T13:37:20;15.13;;;6.88;;
58842;SDS011;44614;54.356;10.100;2024-02-15T13:39:47;20.38;;;6.45;;
58842;SDS011;44614;54.356;10.100;2024-02-15T13:42:13;17.85;;;6.88;;
58842;SDS011;44614;54.356;10.100;2024-02-15T13:44:38;11.43;;;5.30;;
58842;SDS011;44614;54.356;10.100;2024-02-15T13:47:04;17.07;;;7.33;;
58842;SDS011;44614;54.356;10.100;2024-02-15T13:49:30;21.07;;;5.93;;
58842;SDS011;44614;54.356;10.100;2024-02-15T13:51:57;17.80;;;5.70;;
58842;SDS011;44614;54.356;10.100;2024-02-15T13:54:27;14.65;;;5.60;;
58842;SDS011;44614;54.356;10.100;2024-02-15T13:56:54;15.98;;;6.45;;
58842;SDS011;44614;54.356;10.100;2024-02-15T13:59:20;12.98;;;5.57;;
58842;SDS011;44614;54.356;10.100;2024-02-15T14:01:45;10.73;;;5.30;;
58842;SDS011;44614;54.356;10.100;2024-02-15T14:04:11;13.43;;;6.33;;
58842;SDS011;44614;54.356;10.100;2024-02-15T14:06:37;12.45;;;4.95;;
58842;SDS011;44614;54.356;10.100;2024-02-15T14:09:08;14.27;;;5.55;;
58842;SDS011;44614;54.356;10.100;2024-02-15T14:11:38;12.50;;;5.43;;
58842;SDS011;44614;54.356;10.100;2024-02-15T14:14:05;10.13;;;4.93;;
58842;SDS011;44614;54.356;10.100;2024-02-15T14:16:30;15.02;;;6.47;;
58842;SDS011;44614;54.356;10.100;2024-02-15T14:18:56;17.03;;;5.57;;
58842;SDS011;44614;54.356;10.100;2024-02-15T14:21:22;9.37;;;4.37;;
58842;SDS011;44614;54.356;10.100;2024-02-15T14:23:48;17.43;;;5.90;;
58842;SDS011;44614;54.356;10.100;2024-02-15T14:26:14;10.25;;;4.15;;
58842;SDS011;44614;54.356;10.100;2024-02-15T14:28:41;10.50;;;4.25;;
58842;SDS011;44614;54.356;10.100;2024-02-15T14:31:07;11.40;;;4.77;;
58842;SDS011;44614;54.356;10.100;2024-02-15T14:33:53;10.85;;;4.47;;
58842;SDS011;44614;54.356;10.100;2024-02-15T14:36:19;10.33;;;4.63;;
58842;SDS011;44614;54.356;10.100;2024-02-15T14:38:45;14.43;;;4.55;;
58842;SDS011;44614;54.356;10.100;2024-02-15T14:41:11;10.93;;;4.72;;
58842;SDS011;44614;54.356;10.100;2024-02-15T14:43:37;13.17;;;4.73;;
58842;SDS011;44614;54.356;10.100;2024-02-15T14:46:03;10.50;;;5.03;;
58842;SDS011;44614;54.356;10.100;2024-02-15T14:48:33;11.10;;;4.38;;
58842;SDS011;44614;54.356;10.100;2024-02-15T14:50:59;10.43;;;4.30;;